sensor_id;sensor_type;location;lat;lon;timestamp;temperature;humidity
11650;DHT22;5881;48.522;7.682;2023-05-17T00:01:43;8.60;1.00
11650;DHT22;5881;48.522;7.682;2023-05-17T00:04:09;8.40;1.00
11650;DHT22;5881;48.522;7.682;2023-05-17T00:06:35;8.40;1.00
11650;DHT22;5881;48.522;7.682;2023-05-17T00:09:00;8.30;1.00
11650;DHT22;5881;48.522;7.682;2023-05-17T00:11:26;8.30;1.00
11650;DHT22;5881;48.522;7.682;2023-05-17T00:13:52;8.20;1.00
11650;DHT22;5881;48.522;7.682;2023-05-17T00:16:17;8.20;1.00
11650;DHT22;5881;48.522;7.682;2023-05-17T00:18:43;8.10;1.00
11650;DHT22;5881;48.522;7.682;2023-05-17T00:21:08;8.00;1.00
11650;DHT22;5881;48.522;7.682;2023-05-17T00:23:34;7.90;1.00
11650;DHT22;5881;48.522;7.682;2023-05-17T00:25:59;7.70;1.00
11650;DHT22;5881;48.522;7.682;2023-05-17T00:28:25;7.60;1.00
11650;DHT22;5881;48.522;7.682;2023-05-17T00:30:50;7.50;1.00
11650;DHT22;5881;48.522;7.682;2023-05-17T00:33:16;7.50;21.10
11650;DHT22;5881;48.522;7.682;2023-05-17T00:35:42;7.40;71.00
11650;DHT22;5881;48.522;7.682;2023-05-17T00:38:07;7.40;81.30
11650;DHT22;5881;48.522;7.682;2023-05-17T00:40:33;7.40;86.90
11650;DHT22;5881;48.522;7.682;2023-05-17T00:42:58;7.30;99.90
11650;DHT22;5881;48.522;7.682;2023-05-17T00:45:24;7.30;99.90
11650;DHT22;5881;48.522;7.682;2023-05-17T00:47:49;7.30;99.90
11650;DHT22;5881;48.522;7.682;2023-05-17T00:50:15;7.20;99.90
11650;DHT22;5881;48.522;7.682;2023-05-17T00:52:41;7.30;99.90
11650;DHT22;5881;48.522;7.682;2023-05-17T00:55:07;7.20;99.90
11650;DHT22;5881;48.522;7.682;2023-05-17T00:57:32;7.10;99.90
11650;DHT22;5881;48.522;7.682;2023-05-17T00:59:58;7.10;99.90
11650;DHT22;5881;48.522;7.682;2023-05-17T01:02:24;7.00;99.90
11650;DHT22;5881;48.522;7.682;2023-05-17T01:04:50;7.00;99.90
11650;DHT22;5881;48.522;7.682;2023-05-17T01:07:16;7.00;1.00
11650;DHT22;5881;48.522;7.682;2023-05-17T01:09:42;6.90;1.00
11650;DHT22;5881;48.522;7.682;2023-05-17T01:15:16;6.80;1.00
11650;DHT22;5881;48.522;7.682;2023-05-17T01:20:36;6.80;1.00
11650;DHT22;5881;48.522;7.682;2023-05-17T01:23:29;6.70;1.00
11650;DHT22;5881;48.522;7.682;2023-05-17T01:26:29;6.70;1.00
11650;DHT22;5881;48.522;7.682;2023-05-17T01:28:57;6.60;69.00
11650;DHT22;5881;48.522;7.682;2023-05-17T01:31:25;6.70;99.90
11650;DHT22;5881;48.522;7.682;2023-05-17T01:33:50;6.60;1.00
11650;DHT22;5881;48.522;7.682;2023-05-17T01:36:16;6.60;99.90
11650;DHT22;5881;48.522;7.682;2023-05-17T01:38:42;6.50;1.00
11650;DHT22;5881;48.522;7.682;2023-05-17T01:41:14;6.50;1.00
11650;DHT22;5881;48.522;7.682;2023-05-17T01:46:35;6.50;1.00
11650;DHT22;5881;48.522;7.682;2023-05-17T01:52:02;6.50;1.00
11650;DHT22;5881;48.522;7.682;2023-05-17T01:54:42;6.40;1.00
11650;DHT22;5881;48.522;7.682;2023-05-17T01:57:10;6.40;1.00
11650;DHT22;5881;48.522;7.682;2023-05-17T01:59:37;6.40;1.00
11650;DHT22;5881;48.522;7.682;2023-05-17T02:02:04;6.40;1.00
11650;DHT22;5881;48.522;7.682;2023-05-17T02:04:36;6.30;28.30
11650;DHT22;5881;48.522;7.682;2023-05-17T02:07:02;6.30;1.00
11650;DHT22;5881;48.522;7.682;2023-05-17T02:09:28;6.30;99.90
11650;DHT22;5881;48.522;7.682;2023-05-17T02:11:54;6.40;1.00
11650;DHT22;5881;48.522;7.682;2023-05-17T02:14:20;6.30;1.00
11650;DHT22;5881;48.522;7.682;2023-05-17T02:16:45;6.30;99.90
11650;DHT22;5881;48.522;7.682;2023-05-17T02:19:11;6.30;1.00
11650;DHT22;5881;48.522;7.682;2023-05-17T02:21:37;6.30;1.00
11650;DHT22;5881;48.522;7.682;2023-05-17T02:24:03;6.30;1.00
11650;DHT22;5881;48.522;7.682;2023-05-17T02:26:29;6.30;99.90
11650;DHT22;5881;48.522;7.682;2023-05-17T02:28:56;6.40;99.90
11650;DHT22;5881;48.522;7.682;2023-05-17T02:31:21;6.60;1.00
11650;DHT22;5881;48.522;7.682;2023-05-17T02:33:49;6.40;1.00
11650;DHT22;5881;48.522;7.682;2023-05-17T02:36:14;6.40;1.00
11650;DHT22;5881;48.522;7.682;2023-05-17T02:38:40;6.50;1.00
11650;DHT22;5881;48.522;7.682;2023-05-17T02:41:06;6.50;1.00
11650;DHT22;5881;48.522;7.682;2023-05-17T02:43:31;6.60;1.00
11650;DHT22;5881;48.522;7.682;2023-05-17T02:45:57;6.70;99.90
11650;DHT22;5881;48.522;7.682;2023-05-17T02:48:22;6.70;99.90
11650;DHT22;5881;48.522;7.682;2023-05-17T02:50:48;6.70;99.90
11650;DHT22;5881;48.522;7.682;2023-05-17T02:53:13;6.70;31.60
11650;DHT22;5881;48.522;7.682;2023-05-17T02:55:39;6.60;99.90
11650;DHT22;5881;48.522;7.682;2023-05-17T02:58:04;6.60;99.90
11650;DHT22;5881;48.522;7.682;2023-05-17T03:00:30;6.60;99.90
11650;DHT22;5881;48.522;7.682;2023-05-17T03:02:56;6.50;99.90
11650;DHT22;5881;48.522;7.682;2023-05-17T03:05:22;6.60;99.90
11650;DHT22;5881;48.522;7.682;2023-05-17T03:07:47;6.60;99.90
11650;DHT22;5881;48.522;7.682;2023-05-17T03:10:13;6.70;99.90
11650;DHT22;5881;48.522;7.682;2023-05-17T03:12:38;6.70;99.90
11650;DHT22;5881;48.522;7.682;2023-05-17T03:15:04;6.70;99.90
11650;DHT22;5881;48.522;7.682;2023-05-17T03:17:30;6.70;99.90
11650;DHT22;5881;48.522;7.682;2023-05-17T03:19:56;6.70;96.80
11650;DHT22;5881;48.522;7.682;2023-05-17T03:22:21;6.60;99.90
11650;DHT22;5881;48.522;7.682;2023-05-17T03:24:47;6.70;99.90
11650;DHT22;5881;48.522;7.682;2023-05-17T03:27:12;6.80;99.90
11650;DHT22;5881;48.522;7.682;2023-05-17T03:29:38;6.70;99.90
11650;DHT22;5881;48.522;7.682;2023-05-17T03:32:04;6.70;1.00
11650;DHT22;5881;48.522;7.682;2023-05-17T03:34:29;6.70;1.00
11650;DHT22;5881;48.522;7.682;2023-05-17T03:36:55;7.00;1.00
11650;DHT22;5881;48.522;7.682;2023-05-17T03:39:20;6.70;1.00
11650;DHT22;5881;48.522;7.682;2023-05-17T03:41:46;6.70;1.00
11650;DHT22;5881;48.522;7.682;2023-05-17T03:44:12;6.80;1.00
11650;DHT22;5881;48.522;7.682;2023-05-17T03:46:37;6.70;1.00
11650;DHT22;5881;48.522;7.682;2023-05-17T03:49:03;6.80;1.00
11650;DHT22;5881;48.522;7.682;2023-05-17T03:51:28;6.80;1.00
11650;DHT22;5881;48.522;7.682;2023-05-17T03:53:58;6.80;99.90
11650;DHT22;5881;48.522;7.682;2023-05-17T03:56:24;6.80;1.00
11650;DHT22;5881;48.522;7.682;2023-05-17T03:58:49;6.70;1.00
11650;DHT22;5881;48.522;7.682;2023-05-17T04:01:15;6.70;1.00
11650;DHT22;5881;48.522;7.682;2023-05-17T04:03:41;6.70;1.00
11650;DHT22;5881;48.522;7.682;2023-05-17T04:06:07;6.80;99.90
11650;DHT22;5881;48.522;7.682;2023-05-17T04:08:33;6.90;99.90
11650;DHT22;5881;48.522;7.682;2023-05-17T04:10:59;6.90;99.90
11650;DHT22;5881;48.522;7.682;2023-05-17T04:13:34;6.80;99.90
11650;DHT22;5881;48.522;7.682;2023-05-17T04:16:00;7.00;99.90
11650;DHT22;5881;48.522;7.682;2023-05-17T04:18:26;7.10;6.90
11650;DHT22;5881;48.522;7.682;2023-05-17T04:20:54;7.10;27.90
11650;DHT22;5881;48.522;7.682;2023-05-17T04:23:19;7.20;1.00
11650;DHT22;5881;48.522;7.682;2023-05-17T04:25:45;7.20;1.00
11650;DHT22;5881;48.522;7.682;2023-05-17T04:28:11;7.30;1.00
11650;DHT22;5881;48.522;7.682;2023-05-17T04:30:41;7.40;1.00
11650;DHT22;5881;48.522;7.682;2023-05-17T04:33:07;7.30;1.00
11650;DHT22;5881;48.522;7.682;2023-05-17T04:35:32;7.40;1.00
11650;DHT22;5881;48.522;7.682;2023-05-17T04:37:58;7.50;1.00
11650;DHT22;5881;48.522;7.682;2023-05-17T04:40:23;7.50;1.00
11650;DHT22;5881;48.522;7.682;2023-05-17T04:42:49;7.60;1.00
11650;DHT22;5881;48.522;7.682;2023-05-17T04:45:15;7.60;99.90
11650;DHT22;5881;48.522;7.682;2023-05-17T04:47:41;7.80;99.90
11650;DHT22;5881;48.522;7.682;2023-05-17T04:50:08;8.00;99.90
11650;DHT22;5881;48.522;7.682;2023-05-17T04:52:33;8.00;99.90
11650;DHT22;5881;48.522;7.682;2023-05-17T04:54:59;8.30;99.90
11650;DHT22;5881;48.522;7.682;2023-05-17T04:57:24;8.60;99.90
11650;DHT22;5881;48.522;7.682;2023-05-17T04:59:50;9.00;99.90
11650;DHT22;5881;48.522;7.682;2023-05-17T05:02:15;9.10;99.90
11650;DHT22;5881;48.522;7.682;2023-05-17T05:04:41;9.30;99.90
11650;DHT22;5881;48.522;7.682;2023-05-17T05:07:06;9.30;98.70
11650;DHT22;5881;48.522;7.682;2023-05-17T05:09:32;9.50;95.60
11650;DHT22;5881;48.522;7.682;2023-05-17T05:11:58;9.60;89.00
11650;DHT22;5881;48.522;7.682;2023-05-17T05:14:23;10.30;63.50
11650;DHT22;5881;48.522;7.682;2023-05-17T05:16:49;10.90;40.70
11650;DHT22;5881;48.522;7.682;2023-05-17T05:19:14;10.80;25.80
11650;DHT22;5881;48.522;7.682;2023-05-17T05:21:43;9.90;29.80
11650;DHT22;5881;48.522;7.682;2023-05-17T05:24:10;9.40;37.00
11650;DHT22;5881;48.522;7.682;2023-05-17T05:26:35;9.50;40.20
11650;DHT22;5881;48.522;7.682;2023-05-17T05:29:02;9.50;44.10
11650;DHT22;5881;48.522;7.682;2023-05-17T05:31:28;10.00;46.80
11650;DHT22;5881;48.522;7.682;2023-05-17T05:33:54;10.30;36.70
11650;DHT22;5881;48.522;7.682;2023-05-17T05:36:20;10.50;36.30
11650;DHT22;5881;48.522;7.682;2023-05-17T05:38:45;10.60;29.80
11650;DHT22;5881;48.522;7.682;2023-05-17T05:41:11;10.60;27.70
11650;DHT22;5881;48.522;7.682;2023-05-17T05:43:37;10.70;27.90
11650;DHT22;5881;48.522;7.682;2023-05-17T05:46:03;10.50;28.40
11650;DHT22;5881;48.522;7.682;2023-05-17T05:48:29;11.00;24.10
11650;DHT22;5881;48.522;7.682;2023-05-17T05:50:54;12.20;21.00
11650;DHT22;5881;48.522;7.682;2023-05-17T05:53:20;13.50;2.00
11650;DHT22;5881;48.522;7.682;2023-05-17T05:55:45;14.60;1.00
11650;DHT22;5881;48.522;7.682;2023-05-17T05:58:11;13.50;1.00
11650;DHT22;5881;48.522;7.682;2023-05-17T06:00:37;14.30;1.00
11650;DHT22;5881;48.522;7.682;2023-05-17T06:03:03;14.70;1.00
11650;DHT22;5881;48.522;7.682;2023-05-17T06:05:29;15.10;1.00
11650;DHT22;5881;48.522;7.682;2023-05-17T06:07:55;15.60;1.00
11650;DHT22;5881;48.522;7.682;2023-05-17T06:10:20;15.30;1.00
11650;DHT22;5881;48.522;7.682;2023-05-17T06:12:46;15.20;1.00
11650;DHT22;5881;48.522;7.682;2023-05-17T06:15:11;15.60;1.00
11650;DHT22;5881;48.522;7.682;2023-05-17T06:17:37;15.80;1.00
11650;DHT22;5881;48.522;7.682;2023-05-17T06:20:03;16.50;1.00
11650;DHT22;5881;48.522;7.682;2023-05-17T06:22:29;16.00;1.00
11650;DHT22;5881;48.522;7.682;2023-05-17T06:24:55;16.00;1.00
11650;DHT22;5881;48.522;7.682;2023-05-17T06:27:20;16.60;1.00
11650;DHT22;5881;48.522;7.682;2023-05-17T06:29:46;16.80;1.00
11650;DHT22;5881;48.522;7.682;2023-05-17T06:32:11;16.00;1.00
11650;DHT22;5881;48.522;7.682;2023-05-17T06:34:37;16.60;1.00
11650;DHT22;5881;48.522;7.682;2023-05-17T06:37:04;17.20;1.00
11650;DHT22;5881;48.522;7.682;2023-05-17T06:39:29;17.40;1.00
11650;DHT22;5881;48.522;7.682;2023-05-17T06:41:55;16.30;1.00
11650;DHT22;5881;48.522;7.682;2023-05-17T06:44:21;15.50;1.00
11650;DHT22;5881;48.522;7.682;2023-05-17T06:46:46;15.00;1.00
11650;DHT22;5881;48.522;7.682;2023-05-17T06:49:12;14.80;1.00
11650;DHT22;5881;48.522;7.682;2023-05-17T06:51:37;14.20;1.00
11650;DHT22;5881;48.522;7.682;2023-05-17T06:54:03;14.50;1.00
11650;DHT22;5881;48.522;7.682;2023-05-17T06:56:29;14.20;1.00
11650;DHT22;5881;48.522;7.682;2023-05-17T06:58:54;14.20;1.00
11650;DHT22;5881;48.522;7.682;2023-05-17T07:01:20;14.10;1.00
11650;DHT22;5881;48.522;7.682;2023-05-17T07:03:45;13.70;1.00
11650;DHT22;5881;48.522;7.682;2023-05-17T07:06:11;14.10;1.00
11650;DHT22;5881;48.522;7.682;2023-05-17T07:08:37;15.50;1.00
11650;DHT22;5881;48.522;7.682;2023-05-17T07:11:03;14.90;1.00
11650;DHT22;5881;48.522;7.682;2023-05-17T07:13:29;14.60;1.00
11650;DHT22;5881;48.522;7.682;2023-05-17T07:15:55;15.10;1.00
11650;DHT22;5881;48.522;7.682;2023-05-17T07:18:20;15.30;1.00
11650;DHT22;5881;48.522;7.682;2023-05-17T07:20:46;16.30;1.00
11650;DHT22;5881;48.522;7.682;2023-05-17T07:23:12;15.30;1.00
11650;DHT22;5881;48.522;7.682;2023-05-17T07:25:37;15.80;1.00
11650;DHT22;5881;48.522;7.682;2023-05-17T07:28:04;17.50;1.00
11650;DHT22;5881;48.522;7.682;2023-05-17T07:30:30;19.30;1.00
11650;DHT22;5881;48.522;7.682;2023-05-17T07:32:56;18.80;1.00
11650;DHT22;5881;48.522;7.682;2023-05-17T07:35:21;19.30;1.00
11650;DHT22;5881;48.522;7.682;2023-05-17T07:37:47;19.20;1.00
11650;DHT22;5881;48.522;7.682;2023-05-17T07:40:12;19.10;1.00
11650;DHT22;5881;48.522;7.682;2023-05-17T07:42:38;18.90;1.00
11650;DHT22;5881;48.522;7.682;2023-05-17T07:45:04;19.60;1.00
11650;DHT22;5881;48.522;7.682;2023-05-17T07:47:30;19.90;1.00
11650;DHT22;5881;48.522;7.682;2023-05-17T07:49:56;19.60;1.00
11650;DHT22;5881;48.522;7.682;2023-05-17T07:52:21;19.20;1.00
11650;DHT22;5881;48.522;7.682;2023-05-17T07:54:47;19.10;1.00
11650;DHT22;5881;48.522;7.682;2023-05-17T07:57:12;19.30;1.00
11650;DHT22;5881;48.522;7.682;2023-05-17T07:59:38;19.70;1.00
11650;DHT22;5881;48.522;7.682;2023-05-17T08:02:04;19.00;1.00
11650;DHT22;5881;48.522;7.682;2023-05-17T08:04:29;19.50;1.00
11650;DHT22;5881;48.522;7.682;2023-05-17T08:06:55;19.30;1.00
11650;DHT22;5881;48.522;7.682;2023-05-17T08:09:21;19.70;1.00
11650;DHT22;5881;48.522;7.682;2023-05-17T08:11:46;19.40;1.00
11650;DHT22;5881;48.522;7.682;2023-05-17T08:14:16;19.80;1.00
11650;DHT22;5881;48.522;7.682;2023-05-17T08:16:43;20.10;1.00
11650;DHT22;5881;48.522;7.682;2023-05-17T08:19:10;20.80;1.00
11650;DHT22;5881;48.522;7.682;2023-05-17T08:21:40;19.20;1.00
11650;DHT22;5881;48.522;7.682;2023-05-17T08:24:07;20.70;1.00
11650;DHT22;5881;48.522;7.682;2023-05-17T08:26:33;21.10;1.00
11650;DHT22;5881;48.522;7.682;2023-05-17T08:29:00;20.70;1.00
11650;DHT22;5881;48.522;7.682;2023-05-17T08:31:25;21.70;1.00
11650;DHT22;5881;48.522;7.682;2023-05-17T08:33:51;21.20;1.00
11650;DHT22;5881;48.522;7.682;2023-05-17T08:36:16;21.70;1.00
11650;DHT22;5881;48.522;7.682;2023-05-17T08:38:48;21.20;1.00
11650;DHT22;5881;48.522;7.682;2023-05-17T08:41:14;20.30;1.00
11650;DHT22;5881;48.522;7.682;2023-05-17T08:43:40;20.10;1.00
11650;DHT22;5881;48.522;7.682;2023-05-17T08:46:08;21.60;1.00
11650;DHT22;5881;48.522;7.682;2023-05-17T08:48:36;21.90;1.00
11650;DHT22;5881;48.522;7.682;2023-05-17T08:51:06;21.60;1.00
11650;DHT22;5881;48.522;7.682;2023-05-17T08:53:33;20.60;1.00
11650;DHT22;5881;48.522;7.682;2023-05-17T08:56:00;21.80;1.00
11650;DHT22;5881;48.522;7.682;2023-05-17T08:58:29;22.60;1.00
11650;DHT22;5881;48.522;7.682;2023-05-17T09:00:57;21.70;1.00
11650;DHT22;5881;48.522;7.682;2023-05-17T09:03:24;22.20;1.00
11650;DHT22;5881;48.522;7.682;2023-05-17T09:05:51;21.90;1.00
11650;DHT22;5881;48.522;7.682;2023-05-17T09:08:22;22.40;1.00
11650;DHT22;5881;48.522;7.682;2023-05-17T09:10:49;22.70;1.00
11650;DHT22;5881;48.522;7.682;2023-05-17T09:13:15;21.10;1.00
11650;DHT22;5881;48.522;7.682;2023-05-17T09:15:42;21.70;1.00
11650;DHT22;5881;48.522;7.682;2023-05-17T09:18:10;21.10;1.00
11650;DHT22;5881;48.522;7.682;2023-05-17T09:20:36;21.30;1.00
11650;DHT22;5881;48.522;7.682;2023-05-17T09:23:04;21.80;1.00
11650;DHT22;5881;48.522;7.682;2023-05-17T09:25:31;21.00;1.00
11650;DHT22;5881;48.522;7.682;2023-05-17T09:28:01;22.80;1.00
11650;DHT22;5881;48.522;7.682;2023-05-17T09:30:32;22.60;1.00
11650;DHT22;5881;48.522;7.682;2023-05-17T09:33:04;22.10;1.00
11650;DHT22;5881;48.522;7.682;2023-05-17T09:35:31;21.90;1.00
11650;DHT22;5881;48.522;7.682;2023-05-17T09:38:11;21.60;1.00
11650;DHT22;5881;48.522;7.682;2023-05-17T09:40:38;21.40;1.00
11650;DHT22;5881;48.522;7.682;2023-05-17T09:43:04;19.40;1.00
11650;DHT22;5881;48.522;7.682;2023-05-17T09:45:34;17.70;1.00
11650;DHT22;5881;48.522;7.682;2023-05-17T09:48:14;16.70;1.00
11650;DHT22;5881;48.522;7.682;2023-05-17T09:50:50;16.40;1.00
11650;DHT22;5881;48.522;7.682;2023-05-17T09:53:26;16.20;1.00
11650;DHT22;5881;48.522;7.682;2023-05-17T09:55:54;15.80;1.00
11650;DHT22;5881;48.522;7.682;2023-05-17T09:58:20;15.50;1.00
11650;DHT22;5881;48.522;7.682;2023-05-17T10:00:50;15.10;1.00
11650;DHT22;5881;48.522;7.682;2023-05-17T10:03:20;14.70;1.00
11650;DHT22;5881;48.522;7.682;2023-05-17T10:05:49;14.80;1.00
11650;DHT22;5881;48.522;7.682;2023-05-17T10:08:16;15.20;1.00
11650;DHT22;5881;48.522;7.682;2023-05-17T10:10:45;15.70;1.00
11650;DHT22;5881;48.522;7.682;2023-05-17T10:13:11;15.90;1.00
11650;DHT22;5881;48.522;7.682;2023-05-17T10:15:39;15.90;1.00
11650;DHT22;5881;48.522;7.682;2023-05-17T10:18:07;16.00;1.00
11650;DHT22;5881;48.522;7.682;2023-05-17T10:20:33;17.10;1.00
11650;DHT22;5881;48.522;7.682;2023-05-17T10:22:59;18.20;1.00
11650;DHT22;5881;48.522;7.682;2023-05-17T10:25:28;19.00;1.00
11650;DHT22;5881;48.522;7.682;2023-05-17T10:27:54;19.40;1.00
11650;DHT22;5881;48.522;7.682;2023-05-17T10:30:20;19.20;1.00
11650;DHT22;5881;48.522;7.682;2023-05-17T10:32:46;17.40;1.00
11650;DHT22;5881;48.522;7.682;2023-05-17T10:35:13;16.50;1.00
11650;DHT22;5881;48.522;7.682;2023-05-17T10:37:40;17.00;1.00
11650;DHT22;5881;48.522;7.682;2023-05-17T10:40:07;17.00;1.00
11650;DHT22;5881;48.522;7.682;2023-05-17T10:42:43;16.20;1.00
11650;DHT22;5881;48.522;7.682;2023-05-17T10:45:13;16.60;1.00
11650;DHT22;5881;48.522;7.682;2023-05-17T10:47:41;17.30;1.00
11650;DHT22;5881;48.522;7.682;2023-05-17T10:50:11;18.60;1.00
11650;DHT22;5881;48.522;7.682;2023-05-17T10:52:47;18.00;1.00
11650;DHT22;5881;48.522;7.682;2023-05-17T10:55:16;17.70;1.00
11650;DHT22;5881;48.522;7.682;2023-05-17T10:57:42;18.10;1.00
11650;DHT22;5881;48.522;7.682;2023-05-17T11:00:08;17.60;1.00
11650;DHT22;5881;48.522;7.682;2023-05-17T11:02:43;17.30;1.00
11650;DHT22;5881;48.522;7.682;2023-05-17T11:05:22;17.30;1.00
11650;DHT22;5881;48.522;7.682;2023-05-17T11:07:49;16.60;1.00
11650;DHT22;5881;48.522;7.682;2023-05-17T11:10:15;16.50;1.00
11650;DHT22;5881;48.522;7.682;2023-05-17T11:12:44;16.40;1.00
11650;DHT22;5881;48.522;7.682;2023-05-17T11:15:13;16.30;1.00
11650;DHT22;5881;48.522;7.682;2023-05-17T11:20:29;16.50;1.00
11650;DHT22;5881;48.522;7.682;2023-05-17T11:22:56;16.80;1.00
11650;DHT22;5881;48.522;7.682;2023-05-17T11:25:29;17.30;1.00
11650;DHT22;5881;48.522;7.682;2023-05-17T11:27:57;16.80;1.00
11650;DHT22;5881;48.522;7.682;2023-05-17T11:30:28;16.80;1.00
11650;DHT22;5881;48.522;7.682;2023-05-17T11:35:31;17.00;1.00
11650;DHT22;5881;48.522;7.682;2023-05-17T11:38:21;16.70;1.00
11650;DHT22;5881;48.522;7.682;2023-05-17T11:40:48;16.60;1.00
11650;DHT22;5881;48.522;7.682;2023-05-17T11:43:16;16.80;1.00
11650;DHT22;5881;48.522;7.682;2023-05-17T11:48:13;16.90;1.00
11650;DHT22;5881;48.522;7.682;2023-05-17T11:50:40;16.50;1.00
11650;DHT22;5881;48.522;7.682;2023-05-17T11:53:06;16.60;1.00
11650;DHT22;5881;48.522;7.682;2023-05-17T11:55:36;16.70;1.00
11650;DHT22;5881;48.522;7.682;2023-05-17T11:58:03;16.80;1.00
11650;DHT22;5881;48.522;7.682;2023-05-17T12:00:28;17.00;1.00
11650;DHT22;5881;48.522;7.682;2023-05-17T12:02:54;17.50;1.00
11650;DHT22;5881;48.522;7.682;2023-05-17T12:05:20;17.20;1.00
11650;DHT22;5881;48.522;7.682;2023-05-17T12:07:46;16.80;1.00
11650;DHT22;5881;48.522;7.682;2023-05-17T12:10:14;16.30;1.00
11650;DHT22;5881;48.522;7.682;2023-05-17T12:12:40;16.90;1.00
11650;DHT22;5881;48.522;7.682;2023-05-17T12:15:07;16.50;1.00
11650;DHT22;5881;48.522;7.682;2023-05-17T12:17:38;16.40;1.00
11650;DHT22;5881;48.522;7.682;2023-05-17T12:20:07;15.90;1.00
11650;DHT22;5881;48.522;7.682;2023-05-17T12:22:33;15.30;1.00
11650;DHT22;5881;48.522;7.682;2023-05-17T12:24:59;15.20;1.00
11650;DHT22;5881;48.522;7.682;2023-05-17T12:27:25;15.20;1.00
11650;DHT22;5881;48.522;7.682;2023-05-17T12:29:55;15.20;1.00
11650;DHT22;5881;48.522;7.682;2023-05-17T12:32:21;15.40;1.00
11650;DHT22;5881;48.522;7.682;2023-05-17T12:34:47;15.70;1.00
11650;DHT22;5881;48.522;7.682;2023-05-17T12:37:13;15.90;1.00
11650;DHT22;5881;48.522;7.682;2023-05-17T12:39:39;15.90;1.00
11650;DHT22;5881;48.522;7.682;2023-05-17T12:42:05;15.80;1.00
11650;DHT22;5881;48.522;7.682;2023-05-17T12:44:31;16.10;1.00
11650;DHT22;5881;48.522;7.682;2023-05-17T12:47:01;16.10;1.00
11650;DHT22;5881;48.522;7.682;2023-05-17T12:49:26;16.20;1.00
11650;DHT22;5881;48.522;7.682;2023-05-17T12:51:52;16.60;1.00
11650;DHT22;5881;48.522;7.682;2023-05-17T12:54:27;16.80;1.00
11650;DHT22;5881;48.522;7.682;2023-05-17T12:56:54;17.20;1.00
11650;DHT22;5881;48.522;7.682;2023-05-17T12:59:20;17.30;1.00
11650;DHT22;5881;48.522;7.682;2023-05-17T13:01:50;17.20;1.00
11650;DHT22;5881;48.522;7.682;2023-05-17T13:04:18;17.30;1.00
11650;DHT22;5881;48.522;7.682;2023-05-17T13:06:52;17.20;1.00
11650;DHT22;5881;48.522;7.682;2023-05-17T13:09:20;17.30;1.00
11650;DHT22;5881;48.522;7.682;2023-05-17T13:11:53;17.50;1.00
11650;DHT22;5881;48.522;7.682;2023-05-17T13:14:41;16.80;1.00
11650;DHT22;5881;48.522;7.682;2023-05-17T13:17:15;16.80;1.00
11650;DHT22;5881;48.522;7.682;2023-05-17T13:19:41;16.20;1.00
11650;DHT22;5881;48.522;7.682;2023-05-17T13:22:07;16.50;1.00
11650;DHT22;5881;48.522;7.682;2023-05-17T13:24:34;16.50;1.00
11650;DHT22;5881;48.522;7.682;2023-05-17T13:27:01;16.70;1.00
11650;DHT22;5881;48.522;7.682;2023-05-17T13:29:31;16.80;1.00
11650;DHT22;5881;48.522;7.682;2023-05-17T13:31:56;16.50;1.00
11650;DHT22;5881;48.522;7.682;2023-05-17T13:34:22;16.80;1.00
11650;DHT22;5881;48.522;7.682;2023-05-17T13:36:48;16.70;1.00
11650;DHT22;5881;48.522;7.682;2023-05-17T13:39:14;16.20;1.00
11650;DHT22;5881;48.522;7.682;2023-05-17T13:41:41;16.50;1.00
11650;DHT22;5881;48.522;7.682;2023-05-17T13:44:07;16.30;1.00
11650;DHT22;5881;48.522;7.682;2023-05-17T13:46:33;16.50;1.00
11650;DHT22;5881;48.522;7.682;2023-05-17T13:48:59;17.00;1.00
11650;DHT22;5881;48.522;7.682;2023-05-17T13:51:26;16.50;1.00
11650;DHT22;5881;48.522;7.682;2023-05-17T13:53:52;16.80;1.00
11650;DHT22;5881;48.522;7.682;2023-05-17T13:56:18;17.00;1.00
11650;DHT22;5881;48.522;7.682;2023-05-17T13:58:44;17.10;1.00
11650;DHT22;5881;48.522;7.682;2023-05-17T14:01:10;17.00;1.00
11650;DHT22;5881;48.522;7.682;2023-05-17T14:03:36;17.10;1.00
11650;DHT22;5881;48.522;7.682;2023-05-17T14:06:03;17.40;1.00
11650;DHT22;5881;48.522;7.682;2023-05-17T14:08:28;17.00;1.00
11650;DHT22;5881;48.522;7.682;2023-05-17T14:10:54;17.00;1.00
11650;DHT22;5881;48.522;7.682;2023-05-17T14:13:20;17.10;1.00
11650;DHT22;5881;48.522;7.682;2023-05-17T14:15:46;17.20;1.00
11650;DHT22;5881;48.522;7.682;2023-05-17T14:18:11;17.50;1.00
11650;DHT22;5881;48.522;7.682;2023-05-17T14:20:37;17.40;1.00
11650;DHT22;5881;48.522;7.682;2023-05-17T14:23:03;17.70;1.00
11650;DHT22;5881;48.522;7.682;2023-05-17T14:25:29;17.40;1.00
11650;DHT22;5881;48.522;7.682;2023-05-17T14:27:54;18.00;1.00
11650;DHT22;5881;48.522;7.682;2023-05-17T14:30:20;17.30;1.00
11650;DHT22;5881;48.522;7.682;2023-05-17T14:32:46;16.70;1.00
11650;DHT22;5881;48.522;7.682;2023-05-17T14:35:11;16.40;1.00
11650;DHT22;5881;48.522;7.682;2023-05-17T14:37:37;16.20;1.00
11650;DHT22;5881;48.522;7.682;2023-05-17T14:40:04;16.00;1.00
11650;DHT22;5881;48.522;7.682;2023-05-17T14:42:30;16.10;1.00
11650;DHT22;5881;48.522;7.682;2023-05-17T14:44:55;16.40;1.00
11650;DHT22;5881;48.522;7.682;2023-05-17T14:47:21;16.20;1.00
11650;DHT22;5881;48.522;7.682;2023-05-17T14:49:47;16.00;1.00
11650;DHT22;5881;48.522;7.682;2023-05-17T14:52:13;15.60;1.00
11650;DHT22;5881;48.522;7.682;2023-05-17T14:54:39;15.20;1.00
11650;DHT22;5881;48.522;7.682;2023-05-17T14:57:05;15.20;1.00
11650;DHT22;5881;48.522;7.682;2023-05-17T14:59:31;15.20;1.00
11650;DHT22;5881;48.522;7.682;2023-05-17T15:01:57;15.40;1.00
11650;DHT22;5881;48.522;7.682;2023-05-17T15:04:22;15.80;1.00
11650;DHT22;5881;48.522;7.682;2023-05-17T15:06:48;15.60;1.00
11650;DHT22;5881;48.522;7.682;2023-05-17T15:09:16;15.50;1.00
11650;DHT22;5881;48.522;7.682;2023-05-17T15:11:42;15.50;1.00
11650;DHT22;5881;48.522;7.682;2023-05-17T15:14:12;15.50;1.00
11650;DHT22;5881;48.522;7.682;2023-05-17T15:16:37;15.50;1.00
11650;DHT22;5881;48.522;7.682;2023-05-17T15:19:03;15.40;1.00
11650;DHT22;5881;48.522;7.682;2023-05-17T15:21:29;15.40;1.00
11650;DHT22;5881;48.522;7.682;2023-05-17T15:23:55;15.30;1.00
11650;DHT22;5881;48.522;7.682;2023-05-17T15:26:21;15.10;1.00
11650;DHT22;5881;48.522;7.682;2023-05-17T15:28:47;15.40;1.00
11650;DHT22;5881;48.522;7.682;2023-05-17T15:31:15;15.80;1.00
11650;DHT22;5881;48.522;7.682;2023-05-17T15:33:41;16.00;1.00
11650;DHT22;5881;48.522;7.682;2023-05-17T15:36:10;16.20;1.00
11650;DHT22;5881;48.522;7.682;2023-05-17T15:38:36;16.20;1.00
11650;DHT22;5881;48.522;7.682;2023-05-17T15:41:10;16.10;1.00
11650;DHT22;5881;48.522;7.682;2023-05-17T15:43:36;16.00;1.00
11650;DHT22;5881;48.522;7.682;2023-05-17T15:46:02;16.00;1.00
11650;DHT22;5881;48.522;7.682;2023-05-17T15:48:27;15.70;1.00
11650;DHT22;5881;48.522;7.682;2023-05-17T15:50:54;15.50;1.00
11650;DHT22;5881;48.522;7.682;2023-05-17T15:53:20;15.40;1.00
11650;DHT22;5881;48.522;7.682;2023-05-17T15:55:46;15.50;1.00
11650;DHT22;5881;48.522;7.682;2023-05-17T15:58:23;15.50;1.00
11650;DHT22;5881;48.522;7.682;2023-05-17T16:00:49;15.40;1.00
11650;DHT22;5881;48.522;7.682;2023-05-17T16:03:15;15.50;1.00
11650;DHT22;5881;48.522;7.682;2023-05-17T16:05:41;15.40;1.00
11650;DHT22;5881;48.522;7.682;2023-05-17T16:08:08;15.40;1.00
11650;DHT22;5881;48.522;7.682;2023-05-17T16:10:35;15.50;1.00
11650;DHT22;5881;48.522;7.682;2023-05-17T16:13:04;15.60;1.00
11650;DHT22;5881;48.522;7.682;2023-05-17T16:15:30;15.80;1.00
11650;DHT22;5881;48.522;7.682;2023-05-17T16:17:56;16.00;1.00
11650;DHT22;5881;48.522;7.682;2023-05-17T16:20:22;16.00;1.00
11650;DHT22;5881;48.522;7.682;2023-05-17T16:22:48;16.10;1.00